Time;durP1;ratioP1;P1;durP2;ratioP2;P2;SDS_P1;SDS_P2;PMS_P1;PMS_P2;Temp;Humidity;BMP_temperature;BMP_pressure;BME280_temperature;BME280_humidity;BME280_pressure;Samples;Min_cycle;Max_cycle;Signal;HPM_P1;HPM_P2
2022/11/19 00:01:10;;;;;;;13.85;9.88;;;7.50;99.90;;;;;;6129891;23;20061;-88
2022/11/19 00:03:43;;;;;;;15.02;10.13;;;7.40;99.90;;;;;;6130636;23;20006;-89
2022/11/19 00:06:19;;;;;;;16.83;10.32;;;7.50;99.90;;;;;;6104614;23;20056;-88
2022/11/19 00:08:45;;;;;;;15.27;10.15;;;7.50;99.90;;;;;;6126938;23;20006;-88
2022/11/19 00:14:33;;;;;;;;;;;;;;;;;;;;;
2022/11/19 00:17:31;;;;;;;18.13;11.27;;;7.40;99.90;;;;;;6128593;23;20082;-88
2022/11/19 00:20:30;;;;;;;17.00;11.38;;;7.30;99.90;;;;;;6127677;23;20017;-89
2022/11/19 00:23:20;;;;;;;17.10;11.25;;;7.30;99.90;;;;;;6128414;23;20085;-88
2022/11/19 00:28:37;;;;;;;19.23;11.50;;;7.20;99.90;;;;;;6118436;23;20432;-89
2022/11/19 00:31:23;;;;;;;17.88;12.07;;;7.20;99.90;;;;;;6128052;23;20005;-88
2022/11/19 00:34:07;;;;;;;19.48;12.00;;;7.20;99.90;;;;;;6128162;23;20001;-88
2022/11/19 00:36:46;;;;;;;;;;;;;;;;;;;;;
2022/11/19 00:39:55;;;;;;;18.42;12.65;;;7.10;99.90;;;;;;6132186;23;20025;-88
2022/11/19 00:43:45;;;;;;;19.42;13.07;;;7.10;99.90;;;;;;6131698;23;20002;-88
2022/11/19 00:45:43;;;;;;;17.88;12.32;;;7.10;99.90;;;;;;6130526;23;20503;-89
2022/11/19 00:48:39;;;;;;;16.45;10.85;;;7.10;99.90;;;;;;6132069;23;20002;-89
2022/11/19 00:51:21;;;;;;;16.80;11.93;;;7.10;99.90;;;;;;6127178;23;20041;-89
2022/11/19 00:53:48;;;;;;;18.05;12.48;;;7.00;99.90;;;;;;6131940;23;20347;-88
2022/11/19 00:56:29;;;;;;;19.15;12.55;;;7.00;99.90;;;;;;6127926;23;20033;-88
2022/11/19 00:59:07;;;;;;;;;;;7.00;99.90;;;;;;6129982;23;20021;-89
2022/11/19 01:01:42;;;;;;;21.02;12.95;;;7.00;99.90;;;;;;6128086;23;19900;-88
2022/11/19 01:04:24;;;;;;;17.98;12.43;;;6.90;99.90;;;;;;6129996;23;20009;-89
2022/11/19 01:06:52;;;;;;;17.58;12.05;;;6.90;99.90;;;;;;6107064;23;20006;-89
2022/11/19 01:09:21;;;;;;;18.77;12.18;;;6.90;99.90;;;;;;6129068;23;20009;-88
2022/11/19 01:12:24;;;;;;;17.90;12.27;;;6.80;99.90;;;;;;6127759;23;20013;-89
2022/11/19 01:14:52;;;;;;;16.20;12.07;;;6.80;99.90;;;;;;6103284;23;20006;-88
2022/11/19 01:17:29;;;;;;;19.88;13.48;;;6.80;99.90;;;;;;6127636;23;20420;-90
2022/11/19 01:20:00;;;;;;;19.92;12.98;;;6.80;99.90;;;;;;6101759;23;20013;-88
2022/11/19 01:22:38;;;;;;;;;;;;;;;;;;;;;
2022/11/19 01:25:14;;;;;;;;;;;;;;;;;;;;;
2022/11/19 01:28:35;;;;;;;;;;;;;;;;;;;;;
2022/11/19 01:31:29;;;;;;;19.70;12.60;;;6.70;99.90;;;;;;6128749;23;20142;-88
2022/11/19 01:34:12;;;;;;;19.55;12.35;;;6.70;99.90;;;;;;6127529;23;20010;-88
2022/11/19 01:36:51;;;;;;;18.15;13.30;;;6.70;99.90;;;;;;6102847;23;20440;-88
2022/11/19 01:39:21;;;;;;;17.35;12.55;;;6.70;99.90;;;;;;6102769;23;20306;-88
2022/11/19 01:42:48;;;;;;;20.20;14.10;;;6.70;99.90;;;;;;6103656;23;20006;-88
2022/11/19 01:45:26;;;;;;;18.40;13.25;;;6.70;99.90;;;;;;6129456;23;20006;-89
2022/11/19 01:47:58;;;;;;;19.40;13.77;;;6.70;99.90;;;;;;6128254;23;20006;-89
2022/11/19 01:50:38;;;;;;;19.80;14.05;;;6.60;99.90;;;;;;6128326;23;20369;-88
2022/11/19 01:53:21;;;;;;;20.98;14.13;;;6.60;99.90;;;;;;6115361;23;20002;-89
2022/11/19 01:56:02;;;;;;;20.63;13.90;;;6.60;99.90;;;;;;6146061;23;20017;-88
2022/11/19 01:59:02;;;;;;;20.30;14.30;;;6.50;99.90;;;;;;6164776;23;20025;-89
2022/11/19 02:01:35;;;;;;;21.27;14.27;;;6.50;99.90;;;;;;6165944;23;20009;-89
2022/11/19 02:04:02;;;;;;;21.73;14.30;;;6.50;99.90;;;;;;6147344;23;20085;-89
2022/11/19 02:06:49;;;;;;;20.17;14.68;;;6.50;99.90;;;;;;6141624;23;20013;-91
2022/11/19 02:09:30;;;;;;;;;;;;;;;;;;;;;
2022/11/19 02:12:08;;;;;;;22.38;15.27;;;6.50;99.90;;;;;;6158593;23;20467;-89
2022/11/19 02:14:54;;;;;;;24.35;15.25;;;6.50;99.90;;;;;;6132133;23;20069;-90
2022/11/19 02:17:39;;;;;;;21.70;15.80;;;6.40;99.90;;;;;;6132300;23;20443;-89
2022/11/19 02:20:38;;;;;;;21.42;15.38;;;6.40;99.90;;;;;;6131843;23;20009;-89
2022/11/19 02:23:34;;;;;;;23.92;16.17;;;6.40;99.90;;;;;;6156986;23;20029;-89
2022/11/19 02:26:38;;;;;;;21.38;15.45;;;6.30;99.90;;;;;;6129582;23;20329;-90
2022/11/19 02:29:41;;;;;;;23.23;15.68;;;6.30;99.90;;;;;;6156795;23;20064;-89
2022/11/19 02:32:23;;;;;;;21.92;15.48;;;6.30;99.90;;;;;;6156195;23;20033;-89
2022/11/19 02:35:13;;;;;;;22.27;15.68;;;6.20;99.90;;;;;;6132412;23;20029;-89
2022/11/19 02:37:51;;;;;;;26.15;17.23;;;6.20;99.90;;;;;;6132208;23;20012;-89
2022/11/19 02:40:33;;;;;;;24.60;17.33;;;6.20;99.90;;;;;;6133182;23;20475;-90
2022/11/19 02:43:38;;;;;;;23.67;16.90;;;6.10;99.90;;;;;;6138566;23;19997;-90
2022/11/19 02:46:29;;;;;;;23.80;17.25;;;6.10;99.90;;;;;;6175081;23;20012;-90
2022/11/19 02:48:57;;;;;;;23.08;17.23;;;6.10;99.90;;;;;;6182447;23;20033;-88
2022/11/19 02:51:47;;;;;;;27.63;17.70;;;6.00;99.90;;;;;;6179119;23;20006;-94
2022/11/19 02:54:18;;;;;;;24.40;17.40;;;6.00;99.90;;;;;;6178673;23;20006;-89
2022/11/19 02:57:04;;;;;;;24.58;18.00;;;6.00;99.90;;;;;;6154838;23;20005;-89
2022/11/19 03:05:28;;;;;;;26.63;18.83;;;6.00;99.90;;;;;;6149640;23;20045;-89
2022/11/19 03:08:15;;;;;;;;;;;;;;;;;;;;;
2022/11/19 03:11:18;;;;;;;26.25;18.30;;;5.90;99.90;;;;;;6130054;23;20089;-89
2022/11/19 03:17:26;;;;;;;;;;;;;;;;;;;;;
2022/11/19 03:20:07;;;;;;;;;;;;;;;;;;;;;
2022/11/19 03:22:40;;;;;;;;;;;5.80;99.90;;;;;;6130500;23;20089;-89
2022/11/19 03:25:45;;;;;;;26.08;17.83;;;5.70;99.90;;;;;;6128926;23;19991;-89
2022/11/19 03:28:39;;;;;;;25.30;17.50;;;5.70;99.90;;;;;;6150586;23;20013;-91
2022/11/19 03:31:18;;;;;;;28.00;19.60;;;5.70;99.90;;;;;;6153414;23;20013;-89
2022/11/19 03:33:53;;;;;;;26.83;18.98;;;5.60;99.90;;;;;;6128635;23;20447;-89
2022/11/19 03:37:08;;;;;;;26.40;17.60;;;5.60;99.90;;;;;;6153566;23;20010;-90
2022/11/19 03:39:48;;;;;;;;;;;;;;;;;;;;;
2022/11/19 03:42:25;;;;;;;26.05;18.85;;;5.60;99.90;;;;;;6130228;23;20077;-89
2022/11/19 03:45:11;;;;;;;26.77;19.00;;;5.60;99.90;;;;;;6128314;23;20089;-90
2022/11/19 03:50:50;;;;;;;26.58;18.98;;;5.60;99.90;;;;;;6129887;23;20006;-91
2022/11/19 03:57:33;;;;;;;28.25;20.27;;;5.50;99.90;;;;;;6143542;23;20044;-90
2022/11/19 04:00:09;;;;;;;27.63;19.02;;;5.50;99.90;;;;;;6129429;23;20014;-90
2022/11/19 04:02:45;;;;;;;;;;;;;;;;;;;;;
2022/11/19 04:05:13;;;;;;;30.80;20.70;;;5.40;99.90;;;;;;6129659;23;20074;-90
2022/11/19 04:08:00;;;;;;;;;;;;;;;;;;;;;
2022/11/19 04:10:38;;;;;;;27.88;19.05;;;5.40;99.90;;;;;;6131265;23;20081;-90
2022/11/19 04:13:12;;;;;;;29.95;20.20;;;5.40;99.90;;;;;;6129449;23;20006;-90
2022/11/19 04:15:50;;;;;;;29.60;19.85;;;5.40;99.90;;;;;;6104184;23;20009;-90
2022/11/19 04:18:31;;;;;;;28.92;19.52;;;5.40;99.90;;;;;;6103611;23;20452;-90
2022/11/19 04:21:30;;;;;;;;;;;;;;;;;;;;;
2022/11/19 04:23:58;;;;;;;28.38;19.25;;;5.30;99.90;;;;;;6128106;23;20078;-90
2022/11/19 04:26:33;;;;;;;29.63;19.83;;;5.30;99.90;;;;;;6128386;23;20010;-90
2022/11/19 04:29:06;;;;;;;29.58;21.10;;;5.30;99.90;;;;;;6103150;23;20002;-90
2022/11/19 04:31:35;;;;;;;28.55;19.95;;;5.30;99.90;;;;;;6104346;23;20048;-90
2022/11/19 04:34:06;;;;;;;27.83;19.95;;;5.30;99.90;;;;;;6102756;23;20063;-89
2022/11/19 04:36:45;;;;;;;;;;;;;;;;;;;;;
2022/11/19 04:39:16;;;;;;;30.08;20.48;;;5.20;99.90;;;;;;6129406;23;20081;-89
2022/11/19 04:41:45;;;;;;;30.52;20.67;;;5.20;99.90;;;;;;6129503;23;20033;-89
2022/11/19 04:44:27;;;;;;;28.25;18.52;;;5.20;99.90;;;;;;6128342;23;20073;-89
2022/11/19 04:47:05;;;;;;;;;;;;;;;;;;;;;
2022/11/19 04:49:41;;;;;;;;;;;;;;;;;;;;;
2022/11/19 04:52:07;;;;;;;30.95;21.13;;;5.20;99.90;;;;;;6128097;23;20092;-89
2022/11/19 04:54:39;;;;;;;31.10;20.67;;;5.10;99.90;;;;;;6127723;23;20433;-88
2022/11/19 04:57:07;;;;;;;30.70;20.73;;;5.20;99.90;;;;;;6103123;23;20044;-88
2022/11/19 04:59:40;;;;;;;28.92;20.08;;;5.20;99.90;;;;;;6146423;23;20010;-89
2022/11/19 05:02:18;;;;;;;32.13;21.55;;;5.10;99.90;;;;;;6127830;23;20098;-88
2022/11/19 05:04:52;;;;;;;28.80;20.33;;;5.10;99.90;;;;;;6127697;23;19998;-89
2022/11/19 05:07:23;;;;;;;29.27;20.30;;;5.20;99.90;;;;;;6127686;23;20492;-88
2022/11/19 05:10:30;;;;;;;;;;;;;;;;;;;;;
2022/11/19 05:13:12;;;;;;;;;;;;;;;;;;;;;
2022/11/19 05:15:43;;;;;;;32.53;21.23;;;5.10;99.90;;;;;;6150325;23;20085;-88
2022/11/19 05:18:13;;;;;;;30.83;21.23;;;5.10;99.90;;;;;;6136905;23;20009;-88
2022/11/19 05:20:53;;;;;;;35.10;23.15;;;5.00;99.90;;;;;;6146387;23;20006;-89
2022/11/19 05:23:45;;;;;;;29.90;20.60;;;5.00;99.90;;;;;;6170652;23;20002;-88
2022/11/19 05:26:28;;;;;;;33.55;20.65;;;5.00;99.90;;;;;;6140942;23;20047;-88
2022/11/19 05:28:59;;;;;;;30.50;20.58;;;5.00;99.90;;;;;;6147575;23;20009;-89
2022/11/19 05:31:29;;;;;;;31.60;20.90;;;5.00;99.90;;;;;;6137990;23;20010;-89
2022/11/19 05:34:03;;;;;;;30.75;21.83;;;5.00;99.90;;;;;;6154709;23;20085;-89
2022/11/19 05:36:36;;;;;;;31.27;21.10;;;5.00;99.90;;;;;;6152223;23;20002;-88
2022/11/19 05:39:05;;;;;;;32.08;21.88;;;5.00;99.90;;;;;;6127044;23;19998;-88
2022/11/19 05:41:38;;;;;;;31.52;21.52;;;4.90;99.90;;;;;;6151550;23;20112;-88
2022/11/19 05:44:25;;;;;;;30.30;20.67;;;4.90;99.90;;;;;;6151491;23;20070;-89
2022/11/19 05:47:03;;;;;;;31.27;20.30;;;4.90;99.90;;;;;;6127198;23;20002;-88
2022/11/19 05:49:42;;;;;;;;;;;;;;;;;;;;;
2022/11/19 05:52:18;;;;;;;30.73;20.17;;;4.90;99.90;;;;;;6128370;23;20094;-88
2022/11/19 05:54:50;;;;;;;31.58;21.27;;;4.90;99.90;;;;;;6151512;23;20393;-91
2022/11/19 05:57:27;;;;;;;28.42;19.30;;;4.90;99.90;;;;;;6126866;23;20005;-89
2022/11/19 06:00:00;;;;;;;29.65;20.27;;;4.90;99.90;;;;;;6131589;23;20383;-88
2022/11/19 06:02:56;;;;;;;31.67;20.90;;;4.80;99.90;;;;;;6157058;23;20002;-87
2022/11/19 06:05:48;;;;;;;28.10;19.70;;;4.80;99.90;;;;;;6157493;23;20013;-89
2022/11/19 06:08:36;;;;;;;;;;;;;;;;;;;;;
2022/11/19 06:11:15;;;;;;;;;;;;;;;;;;;;;
2022/11/19 06:13:51;;;;;;;30.40;20.15;;;4.80;99.90;;;;;;6157971;23;20049;-88
2022/11/19 06:16:36;;;;;;;28.58;19.80;;;4.80;99.90;;;;;;6157503;23;20052;-88
2022/11/19 06:19:20;;;;;;;;;;;;;;;;;;;;;
2022/11/19 06:21:49;;;;;;;27.80;18.60;;;4.80;99.90;;;;;;6158335;23;20085;-87
2022/11/19 06:24:28;;;;;;;;;;;;;;;;;;;;;
2022/11/19 06:27:03;;;;;;;29.45;19.63;;;4.70;99.90;;;;;;6169300;23;20069;-89
2022/11/19 06:29:41;;;;;;;27.60;19.05;;;4.70;99.90;;;;;;6151111;23;19997;-88
2022/11/19 06:32:15;;;;;;;29.83;20.73;;;4.70;99.90;;;;;;6177781;23;20021;-89
2022/11/19 06:34:53;;;;;;;27.52;18.95;;;4.70;99.90;;;;;;6175478;23;20029;-88
2022/11/19 06:48:09;;;;;;;29.45;19.17;;;4.70;99.90;;;;;;5651707;22;15047188;-88
2022/11/19 06:51:01;;;;;;;30.92;19.05;;;4.60;99.90;;;;;;6261411;22;20000;-89
2022/11/19 06:53:38;;;;;;;28.88;18.80;;;4.60;99.90;;;;;;6286264;22;20094;-88
2022/11/19 06:56:07;;;;;;;31.10;19.40;;;4.60;99.90;;;;;;6285903;22;20004;-89
2022/11/19 06:58:40;;;;;;;30.27;19.83;;;4.60;99.90;;;;;;6286183;22;20003;-88
2022/11/19 07:01:18;;;;;;;29.65;20.08;;;4.60;99.90;;;;;;6259927;22;20008;-88
2022/11/19 07:04:04;;;;;;;31.73;20.38;;;4.50;99.90;;;;;;6286114;22;20033;-88
2022/11/19 07:06:42;;;;;;;31.48;20.00;;;4.50;99.90;;;;;;6264213;22;20008;-88
2022/11/19 07:09:20;;;;;;;;;;;;;;;;;;;;;
2022/11/19 07:11:51;;;;;;;30.67;19.75;;;4.50;99.90;;;;;;6286893;22;20079;-88
2022/11/19 07:14:43;;;;;;;30.20;19.55;;;4.50;99.90;;;;;;6260016;22;20006;-88
2022/11/19 07:17:32;;;;;;;29.67;19.90;;;4.40;99.90;;;;;;6263120;22;20073;-88
2022/11/19 07:20:00;;;;;;;30.00;19.02;;;4.40;99.90;;;;;;6284972;22;20087;-88
2022/11/19 07:22:41;;;;;;;31.05;19.92;;;4.40;99.90;;;;;;6285862;22;20010;-88
2022/11/19 07:25:28;;;;;;;;;;;;;;;;;;;;;
2022/11/19 07:27:59;;;;;;;29.70;19.35;;;4.30;99.90;;;;;;6286904;22;20473;-88
2022/11/19 07:30:37;;;;;;;;;;;;;;;;;;;;;
2022/11/19 07:33:08;;;;;;;28.98;18.95;;;4.30;99.90;;;;;;6286885;22;20047;-88
2022/11/19 07:35:34;;;;;;;28.08;18.67;;;4.30;99.90;;;;;;6285684;22;20086;-88
2022/11/19 07:38:30;;;;;;;28.60;19.58;;;4.30;99.90;;;;;;6285806;22;19996;-88
2022/11/19 07:43:55;;;;;;;29.58;18.05;;;4.30;99.90;;;;;;6286618;22;20014;-89
2022/11/19 07:46:36;;;;;;;;;;;;;;;;;;;;;
2022/11/19 07:49:15;;;;;;;;;;;;;;;;;;;;;
2022/11/19 07:52:01;;;;;;;30.40;18.17;;;4.30;99.90;;;;;;6310623;22;19973;-88
2022/11/19 07:54:30;;;;;;;27.83;18.00;;;4.20;99.90;;;;;;6232725;22;20447;-88
2022/11/19 07:57:07;;;;;;;30.95;19.02;;;4.20;99.90;;;;;;6283072;22;20016;-88
2022/11/19 07:59:44;;;;;;;28.88;18.95;;;4.20;99.90;;;;;;6236210;22;20089;-88
2022/11/19 08:02:15;;;;;;;29.95;18.88;;;4.20;99.90;;;;;;6259626;22;20056;-88
2022/11/19 08:04:58;;;;;;;32.00;19.08;;;4.20;99.90;;;;;;6283648;22;20089;-88
2022/11/19 08:07:33;;;;;;;31.80;18.70;;;4.20;99.90;;;;;;6284218;22;20012;-88
2022/11/19 08:10:09;;;;;;;29.33;17.95;;;4.20;99.90;;;;;;6259203;22;20329;-88
2022/11/19 08:12:35;;;;;;;28.88;17.85;;;4.10;99.90;;;;;;6289296;22;20015;-89
2022/11/19 08:15:00;;;;;;;28.17;16.70;;;4.10;99.90;;;;;;6258526;22;20381;-89
2022/11/19 08:20:10;;;;;;;29.27;16.45;;;4.10;99.90;;;;;;6311983;22;20046;-88
2022/11/19 08:22:37;;;;;;;30.67;16.73;;;4.00;99.90;;;;;;6258368;22;19999;-89
2022/11/19 08:25:03;;;;;;;24.70;16.70;;;4.00;99.90;;;;;;6310140;22;20000;-88
2022/11/19 08:27:29;;;;;;;27.10;17.02;;;4.00;99.90;;;;;;6308941;22;20487;-88
2022/11/19 08:29:55;;;;;;;24.35;16.00;;;4.00;99.90;;;;;;6309180;22;20003;-88
2022/11/19 08:32:20;;;;;;;25.58;16.65;;;3.90;99.90;;;;;;6257490;22;20098;-88
2022/11/19 08:34:46;;;;;;;25.88;16.42;;;3.90;99.90;;;;;;6258353;22;20043;-88
2022/11/19 08:37:13;;;;;;;24.83;15.77;;;3.90;99.90;;;;;;6310154;22;20035;-88
2022/11/19 08:39:39;;;;;;;28.23;16.15;;;3.90;99.90;;;;;;6283718;22;20013;-88
2022/11/19 08:44:50;;;;;;;23.92;15.43;;;3.90;99.90;;;;;;6310562;22;20064;-88
2022/11/19 08:47:16;;;;;;;24.83;15.48;;;3.80;99.90;;;;;;6308871;22;19999;-88
2022/11/19 08:49:41;;;;;;;24.42;15.68;;;3.70;99.90;;;;;;6283095;22;20048;-90
2022/11/19 08:52:07;;;;;;;24.20;14.77;;;3.80;99.90;;;;;;6282710;22;20007;-89
2022/11/19 08:54:33;;;;;;;23.88;15.15;;;3.70;99.90;;;;;;6309284;22;20335;-88
2022/11/19 08:56:58;;;;;;;23.95;14.38;;;3.70;99.90;;;;;;6282890;22;20008;-87
2022/11/19 08:59:24;;;;;;;23.30;15.10;;;3.60;99.90;;;;;;6308117;22;19995;-88
2022/11/19 09:01:50;;;;;;;22.23;14.63;;;3.60;99.90;;;;;;6307656;22;20011;-86
2022/11/19 09:04:16;;;;;;;23.13;15.27;;;3.60;99.90;;;;;;6281855;22;20449;-86
2022/11/19 09:06:41;;;;;;;23.08;14.32;;;3.60;99.90;;;;;;6307502;22;20007;-85
2022/11/19 09:09:07;;;;;;;21.48;14.75;;;3.60;99.90;;;;;;6281309;22;20010;-86
2022/11/19 09:11:34;;;;;;;23.02;14.90;;;3.50;99.90;;;;;;6281356;22;20098;-86
2022/11/19 09:13:59;;;;;;;22.25;14.38;;;3.60;99.90;;;;;;6307455;22;20060;-86
2022/11/19 09:16:26;;;;;;;24.70;15.23;;;3.60;99.90;;;;;;6281746;22;20011;-87
2022/11/19 09:18:52;;;;;;;21.38;13.98;;;3.60;99.90;;;;;;6282037;22;19999;-87
2022/11/19 09:21:18;;;;;;;22.48;14.15;;;3.50;99.90;;;;;;6282184;22;20070;-87
2022/11/19 09:23:43;;;;;;;22.60;14.43;;;3.60;99.90;;;;;;6281863;22;20003;-86
2022/11/19 09:26:14;;;;;;;21.98;13.38;;;3.50;99.90;;;;;;6281897;22;20426;-87
2022/11/19 09:28:41;;;;;;;;;;;3.50;99.90;;;;;;6308413;22;20304;-87
2022/11/19 09:31:13;;;;;;;21.45;14.02;;;3.50;99.90;;;;;;6282452;22;19903;-85
2022/11/19 09:34:11;;;;;;;21.83;13.80;;;3.50;99.90;;;;;;6308041;22;20027;-87
2022/11/19 09:36:39;;;;;;;20.88;13.45;;;3.50;99.90;;;;;;6306681;22;20003;-86
2022/11/19 09:39:05;;;;;;;20.48;13.35;;;3.50;99.90;;;;;;6281760;22;20009;-86
2022/11/19 09:41:53;;;;;;;21.80;13.88;;;3.50;99.90;;;;;;6281994;22;20031;-86
2022/11/19 09:44:28;;;;;;;20.38;12.57;;;3.50;99.90;;;;;;6307590;22;20005;-86
2022/11/19 09:47:21;;;;;;;18.92;12.43;;;3.50;99.90;;;;;;6307539;22;20014;-86
2022/11/19 09:50:12;;;;;;;19.98;13.63;;;3.50;99.90;;;;;;6307782;22;20418;-85
2022/11/19 09:52:48;;;;;;;21.60;13.77;;;3.60;99.90;;;;;;6307692;22;20007;-86
2022/11/19 09:55:19;;;;;;;20.23;13.18;;;3.60;99.90;;;;;;6307488;22;20033;-86
2022/11/19 09:57:55;;;;;;;18.00;12.57;;;3.70;99.90;;;;;;6307542;22;19996;-86
2022/11/19 10:00:24;;;;;;;20.33;13.40;;;3.70;99.90;;;;;;6307531;22;20003;-86
2022/11/19 10:02:52;;;;;;;19.30;12.32;;;3.70;99.90;;;;;;6307084;22;20418;-85
2022/11/19 10:05:43;;;;;;;18.70;12.52;;;3.70;99.90;;;;;;6281921;22;20008;-85
2022/11/19 10:08:34;;;;;;;19.13;12.65;;;3.70;99.90;;;;;;6307483;22;20003;-87
2022/11/19 10:12:04;;;;;;;18.20;12.23;;;3.80;99.90;;;;;;6301132;22;20027;-87
2022/11/19 10:14:35;;;;;;;17.90;11.98;;;3.80;99.90;;;;;;6189822;23;20021;-86
2022/11/19 10:17:37;;;;;;;17.60;11.00;;;3.80;99.90;;;;;;6189223;23;20028;-88
2022/11/19 10:20:35;;;;;;;16.63;11.10;;;3.90;99.90;;;;;;6276919;22;20079;-88
2022/11/19 10:23:14;;;;;;;15.95;11.13;;;3.90;99.90;;;;;;6285717;22;20007;-87
2022/11/19 10:25:46;;;;;;;19.02;11.20;;;3.90;99.90;;;;;;6307072;22;20031;-86
2022/11/19 10:28:17;;;;;;;16.70;11.50;;;4.00;99.90;;;;;;6306805;22;20373;-86
2022/11/19 10:34:28;;;;;;;16.73;11.10;;;4.10;99.90;;;;;;6244905;23;20042;-86
2022/11/19 10:37:02;;;;;;;18.00;11.57;;;4.10;99.90;;;;;;6244387;22;20034;-86
2022/11/19 10:39:31;;;;;;;16.77;11.10;;;4.20;99.90;;;;;;6307384;22;20004;-86
2022/11/19 10:42:33;;;;;;;17.30;11.07;;;4.20;99.90;;;;;;6307323;22;20007;-88
2022/11/19 10:45:02;;;;;;;16.50;10.50;;;4.30;99.90;;;;;;6304575;22;20490;-88
2022/11/19 10:47:31;;;;;;;16.23;10.93;;;4.40;99.90;;;;;;6309310;22;20003;-89
2022/11/19 10:49:56;;;;;;;16.02;10.63;;;4.40;99.90;;;;;;6307649;22;20310;-89
2022/11/19 10:52:28;;;;;;;14.45;10.48;;;4.50;99.90;;;;;;6255908;22;19999;-88
2022/11/19 10:55:02;;;;;;;16.20;10.57;;;4.50;99.90;;;;;;6307146;22;20010;-89
2022/11/19 10:57:31;;;;;;;14.82;10.57;;;4.60;99.90;;;;;;6307140;22;20020;-87
2022/11/19 10:59:59;;;;;;;13.80;9.68;;;4.60;99.90;;;;;;6307374;22;19996;-88
2022/11/19 11:03:01;;;;;;;17.40;10.00;;;4.70;99.90;;;;;;6281242;22;20045;-86
2022/11/19 11:05:28;;;;;;;14.02;9.45;;;4.80;99.90;;;;;;6302399;22;20084;-87
2022/11/19 11:08:08;;;;;;;15.10;10.32;;;4.80;99.90;;;;;;6306613;22;20003;-86
2022/11/19 11:10:44;;;;;;;14.97;9.77;;;4.90;99.90;;;;;;6282748;22;20422;-88
2022/11/19 11:16:26;;;;;;;14.90;9.80;;;5.10;99.90;;;;;;6309261;22;20022;-89
2022/11/19 11:18:55;;;;;;;15.38;9.85;;;5.20;99.90;;;;;;6307709;22;20003;-90
2022/11/19 11:21:32;;;;;;;14.63;9.70;;;5.30;99.90;;;;;;6307292;22;20029;-89
2022/11/19 11:24:01;;;;;;;13.88;9.38;;;5.30;99.90;;;;;;6308825;22;19999;-91
2022/11/19 11:26:33;;;;;;;13.93;8.70;;;5.40;99.90;;;;;;6309354;22;20094;-90
2022/11/19 11:29:13;;;;;;;18.48;10.35;;;5.40;99.90;;;;;;6310955;22;20011;-89
2022/11/19 11:31:48;;;;;;;14.73;10.25;;;5.40;99.90;;;;;;6322846;22;20010;-90
2022/11/19 11:34:25;;;;;;;14.63;9.68;;;5.50;99.90;;;;;;6298665;22;20004;-90
2022/11/19 11:36:55;;;;;;;14.50;9.95;;;5.60;99.90;;;;;;6322525;22;20003;-90
2022/11/19 11:39:30;;;;;;;14.27;9.98;;;5.60;99.90;;;;;;6299311;22;20003;-89
2022/11/19 11:42:00;;;;;;;14.95;10.00;;;5.70;99.90;;;;;;6319081;22;20003;-91
2022/11/19 11:44:35;;;;;;;14.35;10.23;;;5.80;99.90;;;;;;6312234;22;20000;-91
2022/11/19 11:47:16;;;;;;;12.05;9.15;;;5.90;99.90;;;;;;6316186;22;20031;-88
2022/11/19 11:49:44;;;;;;;14.02;9.20;;;5.90;99.90;;;;;;6310320;22;20006;-89
2022/11/19 11:52:18;;;;;;;14.88;9.63;;;6.00;99.90;;;;;;6310690;22;20007;-89
2022/11/19 11:55:21;;;;;;;11.23;8.57;;;6.00;99.90;;;;;;6284931;22;20034;-90
2022/11/19 11:58:41;;;;;;;12.20;8.98;;;6.10;99.90;;;;;;6310980;22;20003;-89
2022/11/19 12:01:10;;;;;;;12.32;8.65;;;6.20;99.70;;;;;;6310280;22;19995;-88
2022/11/19 12:04:06;;;;;;;11.57;8.77;;;6.30;99.90;;;;;;6312457;22;20441;-90
2022/11/19 12:06:45;;;;;;;13.95;9.13;;;6.30;99.70;;;;;;6312498;22;20082;-91
2022/11/19 12:09:26;;;;;;;12.88;8.77;;;6.30;99.70;;;;;;6310700;22;20007;-90
2022/11/19 12:12:29;;;;;;;11.88;8.48;;;6.40;99.60;;;;;;6311067;22;20015;-90
2022/11/19 12:15:18;;;;;;;12.65;8.30;;;6.50;99.20;;;;;;6314017;22;20007;-89
2022/11/19 12:17:55;;;;;;;17.00;8.70;;;6.50;99.10;;;;;;6312595;22;20011;-89
2022/11/19 12:20:32;;;;;;;43.28;11.07;;;6.60;99.20;;;;;;6313740;22;20003;-88
2022/11/19 12:23:19;;;;;;;17.50;8.77;;;6.70;99.00;;;;;;6321703;22;20422;-88
2022/11/19 12:25:55;;;;;;;174.70;16.80;;;6.70;98.60;;;;;;6315166;22;20003;-88
2022/11/19 12:28:42;;;;;;;14.30;8.02;;;6.70;98.40;;;;;;6316737;22;20066;-86
2022/11/19 12:31:17;;;;;;;18.20;7.97;;;6.80;98.10;;;;;;6316546;22;20003;-85
2022/11/19 12:34:02;;;;;;;10.23;8.02;;;6.80;98.20;;;;;;6316672;22;20018;-87
2022/11/19 12:37:15;;;;;;;12.25;8.60;;;6.90;97.80;;;;;;6316048;22;20023;-89
2022/11/19 12:39:59;;;;;;;9.32;6.57;;;6.90;97.30;;;;;;6197430;22;20006;-89
2022/11/19 12:42:43;;;;;;;10.52;7.45;;;7.00;97.10;;;;;;6310460;22;20029;-86
2022/11/19 12:45:49;;;;;;;10.23;7.40;;;7.00;96.80;;;;;;6310177;22;20000;-86
2022/11/19 12:48:27;;;;;;;9.75;6.90;;;7.00;95.70;;;;;;6309104;22;20006;-87
2022/11/19 12:51:05;;;;;;;10.80;6.70;;;7.00;96.10;;;;;;6308775;22;19999;-87
2022/11/19 12:53:40;;;;;;;9.35;6.10;;;7.00;96.20;;;;;;6309881;22;20057;-85
2022/11/19 12:56:20;;;;;;;10.55;7.10;;;7.10;95.70;;;;;;6308972;22;20085;-84
2022/11/19 12:59:06;;;;;;;9.23;6.55;;;7.10;95.80;;;;;;6309348;22;20031;-84
2022/11/19 13:01:36;;;;;;;8.63;6.50;;;7.10;95.60;;;;;;6309352;22;20003;-84
2022/11/19 13:04:11;;;;;;;9.98;6.85;;;7.20;95.90;;;;;;6309169;22;20000;-84
2022/11/19 13:06:54;;;;;;;8.20;5.88;;;7.20;95.50;;;;;;6307529;22;20003;-83
2022/11/19 13:09:45;;;;;;;11.75;5.90;;;7.30;95.10;;;;;;6307736;22;20007;-84
2022/11/19 13:12:25;;;;;;;9.20;6.45;;;7.30;94.60;;;;;;6308680;22;20011;-84
2022/11/19 13:14:54;;;;;;;8.10;5.60;;;7.40;94.90;;;;;;6308424;22;19999;-84
2022/11/19 13:17:40;;;;;;;9.02;6.25;;;7.50;94.00;;;;;;6307972;22;20003;-86
2022/11/19 13:20:35;;;;;;;9.63;6.07;;;7.50;93.80;;;;;;6309176;22;20029;-87
2022/11/19 13:23:04;;;;;;;8.27;6.18;;;7.60;93.60;;;;;;6310088;22;20003;-87
2022/11/19 13:25:41;;;;;;;8.43;5.65;;;7.60;93.70;;;;;;6309403;22;20004;-88
2022/11/19 13:28:44;;;;;;;10.38;5.60;;;7.70;93.20;;;;;;6321373;22;20458;-85
2022/11/19 13:31:39;;;;;;;7.68;5.15;;;7.80;93.00;;;;;;6309663;22;19999;-84
2022/11/19 13:34:29;;;;;;;8.00;5.07;;;7.80;92.50;;;;;;6292199;22;19999;-85
2022/11/19 13:37:01;;;;;;;8.98;6.30;;;7.90;92.20;;;;;;6309586;22;20003;-86
2022/11/19 13:40:03;;;;;;;9.30;5.35;;;7.90;91.90;;;;;;6309084;22;19999;-85
2022/11/19 13:45:16;;;;;;;7.50;5.28;;;7.90;92.00;;;;;;6310299;22;20014;-88
2022/11/19 13:47:55;;;;;;;8.00;5.32;;;7.80;91.10;;;;;;6309094;22;20046;-90
2022/11/19 13:50:31;;;;;;;8.18;5.22;;;7.80;91.20;;;;;;6309195;22;20010;-88
2022/11/19 13:53:04;;;;;;;7.60;5.28;;;7.80;91.30;;;;;;6309611;22;20014;-88
2022/11/19 13:55:37;;;;;;;8.13;5.25;;;7.70;91.20;;;;;;6310454;22;20003;-89
2022/11/19 13:58:29;;;;;;;7.93;5.07;;;7.70;91.50;;;;;;6309964;22;20338;-89
2022/11/19 14:01:06;;;;;;;7.32;5.20;;;7.70;90.50;;;;;;6301556;22;20003;-86
2022/11/19 14:03:53;;;;;;;6.90;4.97;;;7.70;91.20;;;;;;6307709;22;20003;-86
2022/11/19 14:06:25;;;;;;;7.30;5.15;;;7.70;91.10;;;;;;6307653;22;20013;-87
2022/11/19 14:08:56;;;;;;;7.05;4.53;;;7.70;91.60;;;;;;6307755;22;20053;-87
2022/11/19 14:11:40;;;;;;;9.57;5.40;;;7.60;90.90;;;;;;6308286;22;20003;-85
2022/11/19 14:26:18;;;;;;;7.45;5.10;;;7.60;90.60;;;;;;6246260;22;20016;-88
2022/11/19 14:28:42;;;;;;;7.30;5.05;;;7.50;90.30;;;;;;6247244;23;20019;-85
2022/11/19 14:31:08;;;;;;;8.77;4.88;;;7.40;89.00;;;;;;6246382;22;20276;-85
2022/11/19 14:33:41;;;;;;;6.93;4.70;;;7.40;90.10;;;;;;6221388;23;20008;-85
2022/11/19 14:36:12;;;;;;;7.82;4.97;;;7.40;90.30;;;;;;6247542;22;20008;-86
2022/11/19 14:38:42;;;;;;;6.88;5.03;;;7.40;90.30;;;;;;6247310;22;20001;-85
2022/11/19 14:41:25;;;;;;;7.85;5.25;;;7.30;90.00;;;;;;6246584;23;20051;-87
2022/11/19 14:44:08;;;;;;;7.80;5.03;;;7.30;89.40;;;;;;6246099;22;20083;-85
2022/11/19 14:46:37;;;;;;;8.07;4.85;;;7.30;89.80;;;;;;6246446;22;20013;-85
2022/11/19 14:49:06;;;;;;;8.40;5.05;;;7.30;90.30;;;;;;6245289;23;20004;-85
2022/11/19 14:51:39;;;;;;;7.80;5.60;;;7.30;90.00;;;;;;6248815;23;20000;-86
2022/11/19 14:54:14;;;;;;;8.65;4.82;;;7.20;89.30;;;;;;6248709;23;20446;-86
2022/11/19 14:56:41;;;;;;;8.07;5.13;;;7.20;88.90;;;;;;6251998;22;20008;-85
2022/11/19 14:59:13;;;;;;;10.82;6.43;;;7.20;90.00;;;;;;6225994;23;20004;-86
2022/11/19 15:01:59;;;;;;;7.68;5.18;;;7.10;89.80;;;;;;6249779;22;20004;-85
2022/11/19 15:04:37;;;;;;;7.53;5.05;;;7.10;88.60;;;;;;6251583;22;20007;-85
2022/11/19 15:07:15;;;;;;;8.52;5.90;;;7.10;90.00;;;;;;6248875;23;20004;-85
2022/11/19 15:10:03;;;;;;;9.40;4.82;;;7.10;89.20;;;;;;6263416;22;20015;-84
2022/11/19 15:12:49;;;;;;;8.00;5.10;;;7.00;87.60;;;;;;6278707;22;20006;-85
2022/11/19 15:15:23;;;;;;;8.15;4.93;;;7.00;87.60;;;;;;6278114;22;20369;-85
2022/11/19 15:17:59;;;;;;;7.65;5.25;;;7.00;88.60;;;;;;6278080;22;20304;-85
2022/11/19 15:20:28;;;;;;;7.85;4.95;;;6.90;88.60;;;;;;6278019;22;20374;-85